sensor_id;sensor_type;location;lat;lon;timestamp;temperature;humidity
5520;DHT22;2782;52.362;10.012;2023-05-17T00:00:40;18.70;91.00
5520;DHT22;2782;52.362;10.012;2023-05-17T00:01:41;18.70;91.10
5520;DHT22;2782;52.362;10.012;2023-05-17T00:02:42;18.70;91.10
5520;DHT22;2782;52.362;10.012;2023-05-17T00:03:43;18.70;91.10
5520;DHT22;2782;52.362;10.012;2023-05-17T00:04:46;18.70;91.10
5520;DHT22;2782;52.362;10.012;2023-05-17T00:05:47;18.70;91.10
5520;DHT22;2782;52.362;10.012;2023-05-17T00:06:48;18.70;91.40
5520;DHT22;2782;52.362;10.012;2023-05-17T00:07:49;18.70;91.10
5520;DHT22;2782;52.362;10.012;2023-05-17T00:08:50;18.70;91.10
5520;DHT22;2782;52.362;10.012;2023-05-17T00:09:51;18.70;91.10
5520;DHT22;2782;52.362;10.012;2023-05-17T00:10:55;18.70;91.10
5520;DHT22;2782;52.362;10.012;2023-05-17T00:11:56;18.70;91.10
5520;DHT22;2782;52.362;10.012;2023-05-17T00:12:57;18.70;91.10
5520;DHT22;2782;52.362;10.012;2023-05-17T00:13:58;18.70;91.10
5520;DHT22;2782;52.362;10.012;2023-05-17T00:14:59;18.70;91.10
5520;DHT22;2782;52.362;10.012;2023-05-17T00:16:00;18.70;91.10
5520;DHT22;2782;52.362;10.012;2023-05-17T00:17:02;18.70;91.10
5520;DHT22;2782;52.362;10.012;2023-05-17T00:18:02;18.70;91.00
5520;DHT22;2782;52.362;10.012;2023-05-17T00:19:04;18.70;91.10
5520;DHT22;2782;52.362;10.012;2023-05-17T00:20:07;18.70;91.10
5520;DHT22;2782;52.362;10.012;2023-05-17T00:21:09;18.70;91.10
5520;DHT22;2782;52.362;10.012;2023-05-17T00:22:09;18.70;91.10
5520;DHT22;2782;52.362;10.012;2023-05-17T00:23:11;18.70;91.10
5520;DHT22;2782;52.362;10.012;2023-05-17T00:24:11;18.70;91.00
5520;DHT22;2782;52.362;10.012;2023-05-17T00:25:13;18.70;91.10
5520;DHT22;2782;52.362;10.012;2023-05-17T00:26:14;18.70;91.10
5520;DHT22;2782;52.362;10.012;2023-05-17T00:27:15;18.70;91.10
5520;DHT22;2782;52.362;10.012;2023-05-17T00:28:16;18.60;91.00
5520;DHT22;2782;52.362;10.012;2023-05-17T00:29:17;18.60;91.00
5520;DHT22;2782;52.362;10.012;2023-05-17T00:30:18;18.60;91.00
5520;DHT22;2782;52.362;10.012;2023-05-17T00:31:20;18.70;91.10
5520;DHT22;2782;52.362;10.012;2023-05-17T00:32:20;18.60;91.00
5520;DHT22;2782;52.362;10.012;2023-05-17T00:33:22;18.60;91.00
5520;DHT22;2782;52.362;10.012;2023-05-17T00:34:23;18.60;91.00
5520;DHT22;2782;52.362;10.012;2023-05-17T00:35:26;18.60;91.00
5520;DHT22;2782;52.362;10.012;2023-05-17T00:36:26;18.60;91.00
5520;DHT22;2782;52.362;10.012;2023-05-17T00:37:28;18.60;91.00
5520;DHT22;2782;52.362;10.012;2023-05-17T00:38:29;18.60;91.00
5520;DHT22;2782;52.362;10.012;2023-05-17T00:39:30;18.60;91.00
5520;DHT22;2782;52.362;10.012;2023-05-17T00:40:31;18.60;91.00
5520;DHT22;2782;52.362;10.012;2023-05-17T00:41:32;18.60;91.00
5520;DHT22;2782;52.362;10.012;2023-05-17T00:42:33;18.60;90.90
5520;DHT22;2782;52.362;10.012;2023-05-17T00:43:35;18.60;90.90
5520;DHT22;2782;52.362;10.012;2023-05-17T00:44:35;18.60;90.90
5520;DHT22;2782;52.362;10.012;2023-05-17T00:45:37;18.60;90.90
5520;DHT22;2782;52.362;10.012;2023-05-17T00:46:37;18.60;90.90
5520;DHT22;2782;52.362;10.012;2023-05-17T00:47:39;18.60;90.90
5520;DHT22;2782;52.362;10.012;2023-05-17T00:48:40;18.60;90.90
5520;DHT22;2782;52.362;10.012;2023-05-17T00:49:41;18.60;90.90
5520;DHT22;2782;52.362;10.012;2023-05-17T00:50:43;18.60;90.90
5520;DHT22;2782;52.362;10.012;2023-05-17T00:51:45;18.60;90.90
5520;DHT22;2782;52.362;10.012;2023-05-17T00:52:46;18.60;90.90
5520;DHT22;2782;52.362;10.012;2023-05-17T00:53:47;18.60;90.90
5520;DHT22;2782;52.362;10.012;2023-05-17T00:54:49;18.60;90.90
5520;DHT22;2782;52.362;10.012;2023-05-17T00:55:52;18.60;90.90
5520;DHT22;2782;52.362;10.012;2023-05-17T00:56:54;18.60;90.90
5520;DHT22;2782;52.362;10.012;2023-05-17T00:57:57;18.60;90.90
5520;DHT22;2782;52.362;10.012;2023-05-17T00:58:57;18.60;91.00
5520;DHT22;2782;52.362;10.012;2023-05-17T00:59:59;18.60;90.90
5520;DHT22;2782;52.362;10.012;2023-05-17T01:01:00;18.60;90.90
5520;DHT22;2782;52.362;10.012;2023-05-17T01:02:03;18.60;90.90
5520;DHT22;2782;52.362;10.012;2023-05-17T01:03:03;18.60;91.30
5520;DHT22;2782;52.362;10.012;2023-05-17T01:04:05;18.60;91.00
5520;DHT22;2782;52.362;10.012;2023-05-17T01:05:06;18.60;90.90
5520;DHT22;2782;52.362;10.012;2023-05-17T01:06:09;18.60;91.00
5520;DHT22;2782;52.362;10.012;2023-05-17T01:07:10;18.60;90.90
5520;DHT22;2782;52.362;10.012;2023-05-17T01:08:11;18.60;90.90
5520;DHT22;2782;52.362;10.012;2023-05-17T01:09:12;18.60;90.90
5520;DHT22;2782;52.362;10.012;2023-05-17T01:10:14;18.60;90.90
5520;DHT22;2782;52.362;10.012;2023-05-17T01:11:23;18.60;90.90
5520;DHT22;2782;52.362;10.012;2023-05-17T01:12:39;18.60;90.90
5520;DHT22;2782;52.362;10.012;2023-05-17T01:13:51;18.60;90.90
5520;DHT22;2782;52.362;10.012;2023-05-17T01:15:01;18.60;90.90
5520;DHT22;2782;52.362;10.012;2023-05-17T01:16:15;18.60;90.90
5520;DHT22;2782;52.362;10.012;2023-05-17T01:17:26;18.60;90.90
5520;DHT22;2782;52.362;10.012;2023-05-17T01:18:35;18.60;91.00
5520;DHT22;2782;52.362;10.012;2023-05-17T01:19:59;18.60;90.90
5520;DHT22;2782;52.362;10.012;2023-05-17T01:21:17;18.50;90.90
5520;DHT22;2782;52.362;10.012;2023-05-17T01:22:43;18.50;90.90
5520;DHT22;2782;52.362;10.012;2023-05-17T01:23:54;18.50;90.90
5520;DHT22;2782;52.362;10.012;2023-05-17T01:25:06;18.50;91.00
5520;DHT22;2782;52.362;10.012;2023-05-17T01:26:15;18.50;91.00
5520;DHT22;2782;52.362;10.012;2023-05-17T01:27:18;18.50;91.00
5520;DHT22;2782;52.362;10.012;2023-05-17T01:28:22;18.50;91.00
5520;DHT22;2782;52.362;10.012;2023-05-17T01:29:25;18.50;91.00
5520;DHT22;2782;52.362;10.012;2023-05-17T01:30:28;18.50;90.90
5520;DHT22;2782;52.362;10.012;2023-05-17T01:31:31;18.50;90.90
5520;DHT22;2782;52.362;10.012;2023-05-17T01:32:32;18.50;90.90
5520;DHT22;2782;52.362;10.012;2023-05-17T01:33:34;18.50;90.90
5520;DHT22;2782;52.362;10.012;2023-05-17T01:34:36;18.50;90.90
5520;DHT22;2782;52.362;10.012;2023-05-17T01:35:37;18.50;90.90
5520;DHT22;2782;52.362;10.012;2023-05-17T01:36:38;18.50;90.90
5520;DHT22;2782;52.362;10.012;2023-05-17T01:37:39;18.50;90.80
5520;DHT22;2782;52.362;10.012;2023-05-17T01:38:41;18.50;90.90
5520;DHT22;2782;52.362;10.012;2023-05-17T01:39:41;18.50;90.80
5520;DHT22;2782;52.362;10.012;2023-05-17T01:40:53;18.50;90.80
5520;DHT22;2782;52.362;10.012;2023-05-17T01:42:00;18.50;90.80
5520;DHT22;2782;52.362;10.012;2023-05-17T01:43:18;18.50;90.80
5520;DHT22;2782;52.362;10.012;2023-05-17T01:44:25;18.50;90.80
5520;DHT22;2782;52.362;10.012;2023-05-17T01:45:31;18.50;90.80
5520;DHT22;2782;52.362;10.012;2023-05-17T01:46:38;18.50;90.80
5520;DHT22;2782;52.362;10.012;2023-05-17T01:47:44;18.50;90.90
5520;DHT22;2782;52.362;10.012;2023-05-17T01:48:51;18.50;90.80
5520;DHT22;2782;52.362;10.012;2023-05-17T01:49:58;18.50;90.90
5520;DHT22;2782;52.362;10.012;2023-05-17T01:51:01;18.50;90.90
5520;DHT22;2782;52.362;10.012;2023-05-17T01:52:07;18.50;90.80
5520;DHT22;2782;52.362;10.012;2023-05-17T01:53:19;18.50;90.90
5520;DHT22;2782;52.362;10.012;2023-05-17T01:54:22;18.50;90.90
5520;DHT22;2782;52.362;10.012;2023-05-17T01:55:35;18.50;90.90
5520;DHT22;2782;52.362;10.012;2023-05-17T01:56:42;18.50;90.90
5520;DHT22;2782;52.362;10.012;2023-05-17T01:57:44;18.50;90.90
5520;DHT22;2782;52.362;10.012;2023-05-17T01:58:50;18.50;90.90
5520;DHT22;2782;52.362;10.012;2023-05-17T01:59:53;18.50;90.90
5520;DHT22;2782;52.362;10.012;2023-05-17T02:00:56;18.50;90.80
5520;DHT22;2782;52.362;10.012;2023-05-17T02:01:59;18.50;90.90
5520;DHT22;2782;52.362;10.012;2023-05-17T02:03:05;18.50;90.90
5520;DHT22;2782;52.362;10.012;2023-05-17T02:04:07;18.50;90.90
5520;DHT22;2782;52.362;10.012;2023-05-17T02:05:09;18.50;90.90
5520;DHT22;2782;52.362;10.012;2023-05-17T02:06:10;18.50;90.90
5520;DHT22;2782;52.362;10.012;2023-05-17T02:07:11;18.50;90.90
5520;DHT22;2782;52.362;10.012;2023-05-17T02:08:13;18.50;90.80
5520;DHT22;2782;52.362;10.012;2023-05-17T02:09:14;18.50;90.80
5520;DHT22;2782;52.362;10.012;2023-05-17T02:10:15;18.50;90.80
5520;DHT22;2782;52.362;10.012;2023-05-17T02:11:16;18.50;90.80
5520;DHT22;2782;52.362;10.012;2023-05-17T02:12:17;18.50;90.70
5520;DHT22;2782;52.362;10.012;2023-05-17T02:13:18;18.50;91.10
5520;DHT22;2782;52.362;10.012;2023-05-17T02:14:21;18.50;90.70
5520;DHT22;2782;52.362;10.012;2023-05-17T02:15:22;18.50;90.70
5520;DHT22;2782;52.362;10.012;2023-05-17T02:16:23;18.50;90.70
5520;DHT22;2782;52.362;10.012;2023-05-17T02:17:24;18.50;90.80
5520;DHT22;2782;52.362;10.012;2023-05-17T02:18:26;18.50;90.80
5520;DHT22;2782;52.362;10.012;2023-05-17T02:19:26;18.50;90.80
5520;DHT22;2782;52.362;10.012;2023-05-17T02:20:28;18.50;90.70
5520;DHT22;2782;52.362;10.012;2023-05-17T02:21:29;18.50;90.70
5520;DHT22;2782;52.362;10.012;2023-05-17T02:22:30;18.50;90.70
5520;DHT22;2782;52.362;10.012;2023-05-17T02:23:31;18.50;90.70
5520;DHT22;2782;52.362;10.012;2023-05-17T02:24:33;18.50;90.70
5520;DHT22;2782;52.362;10.012;2023-05-17T02:25:33;18.50;90.70
5520;DHT22;2782;52.362;10.012;2023-05-17T02:26:35;18.50;90.70
5520;DHT22;2782;52.362;10.012;2023-05-17T02:27:35;18.50;90.70
5520;DHT22;2782;52.362;10.012;2023-05-17T02:28:37;18.50;90.70
5520;DHT22;2782;52.362;10.012;2023-05-17T02:29:39;18.50;90.60
5520;DHT22;2782;52.362;10.012;2023-05-17T02:30:41;18.50;90.60
5520;DHT22;2782;52.362;10.012;2023-05-17T02:31:41;18.40;90.60
5520;DHT22;2782;52.362;10.012;2023-05-17T02:32:43;18.50;90.60
5520;DHT22;2782;52.362;10.012;2023-05-17T02:33:43;18.50;90.60
5520;DHT22;2782;52.362;10.012;2023-05-17T02:34:45;18.50;90.60
5520;DHT22;2782;52.362;10.012;2023-05-17T02:35:48;18.50;90.60
5520;DHT22;2782;52.362;10.012;2023-05-17T02:36:49;18.50;90.60
5520;DHT22;2782;52.362;10.012;2023-05-17T02:37:50;18.50;90.90
5520;DHT22;2782;52.362;10.012;2023-05-17T02:38:52;18.50;90.50
5520;DHT22;2782;52.362;10.012;2023-05-17T02:39:53;18.50;90.90
5520;DHT22;2782;52.362;10.012;2023-05-17T02:40:54;18.50;90.60
5520;DHT22;2782;52.362;10.012;2023-05-17T02:41:55;18.40;90.50
5520;DHT22;2782;52.362;10.012;2023-05-17T02:42:57;18.50;90.50
5520;DHT22;2782;52.362;10.012;2023-05-17T02:43:57;18.50;90.50
5520;DHT22;2782;52.362;10.012;2023-05-17T02:45:00;18.50;90.50
5520;DHT22;2782;52.362;10.012;2023-05-17T02:46:01;18.40;90.50
5520;DHT22;2782;52.362;10.012;2023-05-17T02:47:02;18.40;90.50
5520;DHT22;2782;52.362;10.012;2023-05-17T02:48:03;18.40;90.40
5520;DHT22;2782;52.362;10.012;2023-05-17T02:49:05;18.50;90.50
5520;DHT22;2782;52.362;10.012;2023-05-17T02:50:06;18.50;90.50
5520;DHT22;2782;52.362;10.012;2023-05-17T02:51:08;18.40;90.50
5520;DHT22;2782;52.362;10.012;2023-05-17T02:52:08;18.50;90.50
5520;DHT22;2782;52.362;10.012;2023-05-17T02:53:10;18.40;90.50
5520;DHT22;2782;52.362;10.012;2023-05-17T02:54:11;18.40;90.50
5520;DHT22;2782;52.362;10.012;2023-05-17T02:55:12;18.50;90.50
5520;DHT22;2782;52.362;10.012;2023-05-17T02:56:13;18.50;90.50
5520;DHT22;2782;52.362;10.012;2023-05-17T02:57:14;18.40;90.50
5520;DHT22;2782;52.362;10.012;2023-05-17T02:58:15;18.40;90.50
5520;DHT22;2782;52.362;10.012;2023-05-17T02:59:16;18.40;90.50
5520;DHT22;2782;52.362;10.012;2023-05-17T03:00:19;18.50;90.50
5520;DHT22;2782;52.362;10.012;2023-05-17T03:01:20;18.40;90.50
5520;DHT22;2782;52.362;10.012;2023-05-17T03:02:21;18.40;90.50
5520;DHT22;2782;52.362;10.012;2023-05-17T03:03:23;18.40;90.50
5520;DHT22;2782;52.362;10.012;2023-05-17T03:04:23;18.40;90.50
5520;DHT22;2782;52.362;10.012;2023-05-17T03:05:25;18.40;90.50
5520;DHT22;2782;52.362;10.012;2023-05-17T03:06:25;18.40;90.50
5520;DHT22;2782;52.362;10.012;2023-05-17T03:07:27;18.40;90.50
5520;DHT22;2782;52.362;10.012;2023-05-17T03:08:28;18.40;90.50
5520;DHT22;2782;52.362;10.012;2023-05-17T03:09:30;18.40;90.50
5520;DHT22;2782;52.362;10.012;2023-05-17T03:10:31;18.40;90.50
5520;DHT22;2782;52.362;10.012;2023-05-17T03:11:32;18.40;90.50
5520;DHT22;2782;52.362;10.012;2023-05-17T03:12:33;18.40;90.50
5520;DHT22;2782;52.362;10.012;2023-05-17T03:13:35;18.40;90.40
5520;DHT22;2782;52.362;10.012;2023-05-17T03:14:35;18.40;90.50
5520;DHT22;2782;52.362;10.012;2023-05-17T03:15:38;18.40;90.40
5520;DHT22;2782;52.362;10.012;2023-05-17T03:16:39;18.40;90.50
5520;DHT22;2782;52.362;10.012;2023-05-17T03:17:40;18.40;90.50
5520;DHT22;2782;52.362;10.012;2023-05-17T03:18:41;18.40;90.50
5520;DHT22;2782;52.362;10.012;2023-05-17T03:19:43;18.40;90.40
5520;DHT22;2782;52.362;10.012;2023-05-17T03:20:43;18.40;90.50
5520;DHT22;2782;52.362;10.012;2023-05-17T03:21:45;18.40;90.50
5520;DHT22;2782;52.362;10.012;2023-05-17T03:22:45;18.40;90.40
5520;DHT22;2782;52.362;10.012;2023-05-17T03:23:47;18.40;90.40
5520;DHT22;2782;52.362;10.012;2023-05-17T03:24:47;18.40;90.40
5520;DHT22;2782;52.362;10.012;2023-05-17T03:25:49;18.40;90.50
5520;DHT22;2782;52.362;10.012;2023-05-17T03:26:50;18.40;90.50
5520;DHT22;2782;52.362;10.012;2023-05-17T03:27:51;18.40;90.40
5520;DHT22;2782;52.362;10.012;2023-05-17T03:28:52;18.40;90.40
5520;DHT22;2782;52.362;10.012;2023-05-17T03:29:53;18.40;90.40
5520;DHT22;2782;52.362;10.012;2023-05-17T03:30:55;18.40;90.30
5520;DHT22;2782;52.362;10.012;2023-05-17T03:31:57;18.40;90.40
5520;DHT22;2782;52.362;10.012;2023-05-17T03:32:58;18.40;90.40
5520;DHT22;2782;52.362;10.012;2023-05-17T03:33:59;18.40;90.30
5520;DHT22;2782;52.362;10.012;2023-05-17T03:35:00;18.40;90.30
5520;DHT22;2782;52.362;10.012;2023-05-17T03:36:02;18.40;90.30
5520;DHT22;2782;52.362;10.012;2023-05-17T03:37:02;18.40;90.30
5520;DHT22;2782;52.362;10.012;2023-05-17T03:38:04;18.40;90.30
5520;DHT22;2782;52.362;10.012;2023-05-17T03:39:05;18.40;90.30
5520;DHT22;2782;52.362;10.012;2023-05-17T03:40:07;18.40;90.30
5520;DHT22;2782;52.362;10.012;2023-05-17T03:41:08;18.40;90.30
5520;DHT22;2782;52.362;10.012;2023-05-17T03:42:09;18.40;90.30
5520;DHT22;2782;52.362;10.012;2023-05-17T03:43:10;18.40;90.30
5520;DHT22;2782;52.362;10.012;2023-05-17T03:44:12;18.40;90.30
5520;DHT22;2782;52.362;10.012;2023-05-17T03:45:14;18.40;90.30
5520;DHT22;2782;52.362;10.012;2023-05-17T03:46:17;18.40;90.30
5520;DHT22;2782;52.362;10.012;2023-05-17T03:47:17;18.40;90.30
5520;DHT22;2782;52.362;10.012;2023-05-17T03:48:22;18.40;90.30
5520;DHT22;2782;52.362;10.012;2023-05-17T03:49:23;18.40;90.20
5520;DHT22;2782;52.362;10.012;2023-05-17T03:50:25;18.40;90.30
5520;DHT22;2782;52.362;10.012;2023-05-17T03:51:25;18.40;90.30
5520;DHT22;2782;52.362;10.012;2023-05-17T03:52:27;18.40;90.30
5520;DHT22;2782;52.362;10.012;2023-05-17T03:53:28;18.40;90.30
5520;DHT22;2782;52.362;10.012;2023-05-17T03:54:29;18.40;90.30
5520;DHT22;2782;52.362;10.012;2023-05-17T03:55:30;18.40;90.30
5520;DHT22;2782;52.362;10.012;2023-05-17T03:56:31;18.40;90.30
5520;DHT22;2782;52.362;10.012;2023-05-17T03:57:32;18.40;90.30
5520;DHT22;2782;52.362;10.012;2023-05-17T03:58:34;18.40;90.30
5520;DHT22;2782;52.362;10.012;2023-05-17T03:59:34;18.40;90.30
5520;DHT22;2782;52.362;10.012;2023-05-17T04:00:36;18.40;90.30
5520;DHT22;2782;52.362;10.012;2023-05-17T04:01:38;18.40;90.30
5520;DHT22;2782;52.362;10.012;2023-05-17T04:02:41;18.40;90.30
5520;DHT22;2782;52.362;10.012;2023-05-17T04:03:41;18.40;90.30
5520;DHT22;2782;52.362;10.012;2023-05-17T04:04:47;18.40;90.30
5520;DHT22;2782;52.362;10.012;2023-05-17T04:05:48;18.40;90.30
5520;DHT22;2782;52.362;10.012;2023-05-17T04:06:50;18.40;90.30
5520;DHT22;2782;52.362;10.012;2023-05-17T04:07:51;18.40;90.30
5520;DHT22;2782;52.362;10.012;2023-05-17T04:08:53;18.40;90.30
5520;DHT22;2782;52.362;10.012;2023-05-17T04:09:55;18.40;90.30
5520;DHT22;2782;52.362;10.012;2023-05-17T04:10:58;18.40;90.30
5520;DHT22;2782;52.362;10.012;2023-05-17T04:12:00;18.40;90.30
5520;DHT22;2782;52.362;10.012;2023-05-17T04:13:02;18.40;90.30
5520;DHT22;2782;52.362;10.012;2023-05-17T04:14:04;18.40;90.30
5520;DHT22;2782;52.362;10.012;2023-05-17T04:15:06;18.30;90.20
5520;DHT22;2782;52.362;10.012;2023-05-17T04:16:07;18.40;90.30
5520;DHT22;2782;52.362;10.012;2023-05-17T04:17:10;18.40;90.30
5520;DHT22;2782;52.362;10.012;2023-05-17T04:18:11;18.40;90.30
5520;DHT22;2782;52.362;10.012;2023-05-17T04:19:13;18.40;90.30
5520;DHT22;2782;52.362;10.012;2023-05-17T04:20:13;18.40;90.30
5520;DHT22;2782;52.362;10.012;2023-05-17T04:21:15;18.40;90.20
5520;DHT22;2782;52.362;10.012;2023-05-17T04:22:15;18.30;90.20
5520;DHT22;2782;52.362;10.012;2023-05-17T04:23:17;18.40;90.20
5520;DHT22;2782;52.362;10.012;2023-05-17T04:24:18;18.40;90.20
5520;DHT22;2782;52.362;10.012;2023-05-17T04:25:19;18.40;90.20
5520;DHT22;2782;52.362;10.012;2023-05-17T04:26:20;18.30;90.20
5520;DHT22;2782;52.362;10.012;2023-05-17T04:27:21;18.40;90.20
5520;DHT22;2782;52.362;10.012;2023-05-17T04:28:22;18.40;90.20
5520;DHT22;2782;52.362;10.012;2023-05-17T04:29:24;18.40;90.10
5520;DHT22;2782;52.362;10.012;2023-05-17T04:30:25;18.30;90.10
5520;DHT22;2782;52.362;10.012;2023-05-17T04:31:27;18.40;90.10
5520;DHT22;2782;52.362;10.012;2023-05-17T04:32:29;18.30;90.10
5520;DHT22;2782;52.362;10.012;2023-05-17T04:33:33;18.30;90.10
5520;DHT22;2782;52.362;10.012;2023-05-17T04:34:34;18.40;90.10
5520;DHT22;2782;52.362;10.012;2023-05-17T04:35:37;18.30;90.00
5520;DHT22;2782;52.362;10.012;2023-05-17T04:36:38;18.40;90.10
5520;DHT22;2782;52.362;10.012;2023-05-17T04:37:40;18.40;90.10
5520;DHT22;2782;52.362;10.012;2023-05-17T04:38:40;18.40;90.10
5520;DHT22;2782;52.362;10.012;2023-05-17T04:39:42;18.40;90.00
5520;DHT22;2782;52.362;10.012;2023-05-17T04:40:42;18.40;90.00
5520;DHT22;2782;52.362;10.012;2023-05-17T04:41:44;18.40;90.00
5520;DHT22;2782;52.362;10.012;2023-05-17T04:42:45;18.40;90.00
5520;DHT22;2782;52.362;10.012;2023-05-17T04:43:46;18.40;90.00
5520;DHT22;2782;52.362;10.012;2023-05-17T04:44:47;18.40;90.00
5520;DHT22;2782;52.362;10.012;2023-05-17T04:45:49;18.40;89.90
5520;DHT22;2782;52.362;10.012;2023-05-17T04:46:55;18.40;89.80
5520;DHT22;2782;52.362;10.012;2023-05-17T04:47:57;18.40;89.60
5520;DHT22;2782;52.362;10.012;2023-05-17T04:48:58;18.40;89.60
5520;DHT22;2782;52.362;10.012;2023-05-17T04:50:00;18.40;89.40
5520;DHT22;2782;52.362;10.012;2023-05-17T04:51:01;18.40;89.20
5520;DHT22;2782;52.362;10.012;2023-05-17T04:52:04;18.40;89.20
5520;DHT22;2782;52.362;10.012;2023-05-17T04:53:04;18.40;89.20
5520;DHT22;2782;52.362;10.012;2023-05-17T04:54:06;18.40;89.10
5520;DHT22;2782;52.362;10.012;2023-05-17T04:55:08;18.40;89.10
5520;DHT22;2782;52.362;10.012;2023-05-17T04:56:09;18.50;89.00
5520;DHT22;2782;52.362;10.012;2023-05-17T04:57:10;18.40;88.60
5520;DHT22;2782;52.362;10.012;2023-05-17T04:58:12;18.50;88.60
5520;DHT22;2782;52.362;10.012;2023-05-17T04:59:12;18.50;88.60
5520;DHT22;2782;52.362;10.012;2023-05-17T05:00:15;18.50;88.40
5520;DHT22;2782;52.362;10.012;2023-05-17T05:01:16;18.50;87.60
5520;DHT22;2782;52.362;10.012;2023-05-17T05:02:17;18.50;88.10
5520;DHT22;2782;52.362;10.012;2023-05-17T05:03:21;18.50;88.40
5520;DHT22;2782;52.362;10.012;2023-05-17T05:04:23;18.60;88.40
5520;DHT22;2782;52.362;10.012;2023-05-17T05:05:25;18.60;88.20
5520;DHT22;2782;52.362;10.012;2023-05-17T05:06:26;18.60;88.00
5520;DHT22;2782;52.362;10.012;2023-05-17T05:07:27;18.60;87.40
5520;DHT22;2782;52.362;10.012;2023-05-17T05:08:29;18.60;88.00
5520;DHT22;2782;52.362;10.012;2023-05-17T05:09:29;18.70;88.30
5520;DHT22;2782;52.362;10.012;2023-05-17T05:10:31;18.70;88.40
5520;DHT22;2782;52.362;10.012;2023-05-17T05:11:32;18.70;89.20
5520;DHT22;2782;52.362;10.012;2023-05-17T05:12:33;18.70;89.80
5520;DHT22;2782;52.362;10.012;2023-05-17T05:13:34;18.70;90.00
5520;DHT22;2782;52.362;10.012;2023-05-17T05:14:38;18.70;90.20
5520;DHT22;2782;52.362;10.012;2023-05-17T05:15:38;18.70;90.20
5520;DHT22;2782;52.362;10.012;2023-05-17T05:16:40;18.70;90.50
5520;DHT22;2782;52.362;10.012;2023-05-17T05:17:41;18.70;90.50
5520;DHT22;2782;52.362;10.012;2023-05-17T05:18:43;18.80;90.70
5520;DHT22;2782;52.362;10.012;2023-05-17T05:19:45;18.80;90.80
5520;DHT22;2782;52.362;10.012;2023-05-17T05:20:47;18.80;90.80
5520;DHT22;2782;52.362;10.012;2023-05-17T05:21:49;18.80;90.80
5520;DHT22;2782;52.362;10.012;2023-05-17T05:22:49;18.80;90.80
5520;DHT22;2782;52.362;10.012;2023-05-17T05:23:51;18.80;90.30
5520;DHT22;2782;52.362;10.012;2023-05-17T05:24:54;18.90;89.90
5520;DHT22;2782;52.362;10.012;2023-05-17T05:25:54;18.90;89.60
5520;DHT22;2782;52.362;10.012;2023-05-17T05:26:56;18.90;89.30
5520;DHT22;2782;52.362;10.012;2023-05-17T05:27:57;18.90;90.10
5520;DHT22;2782;52.362;10.012;2023-05-17T05:28:58;18.90;90.40
5520;DHT22;2782;52.362;10.012;2023-05-17T05:29:59;18.90;90.00
5520;DHT22;2782;52.362;10.012;2023-05-17T05:31:00;18.90;88.80
5520;DHT22;2782;52.362;10.012;2023-05-17T05:32:01;18.90;88.20
5520;DHT22;2782;52.362;10.012;2023-05-17T05:33:04;18.90;87.90
5520;DHT22;2782;52.362;10.012;2023-05-17T05:34:06;18.90;85.00
5520;DHT22;2782;52.362;10.012;2023-05-17T05:35:08;18.90;83.50
5520;DHT22;2782;52.362;10.012;2023-05-17T05:36:09;18.90;81.90
5520;DHT22;2782;52.362;10.012;2023-05-17T05:37:10;18.90;80.90
5520;DHT22;2782;52.362;10.012;2023-05-17T05:38:11;18.90;80.20
5520;DHT22;2782;52.362;10.012;2023-05-17T05:39:13;18.90;79.90
5520;DHT22;2782;52.362;10.012;2023-05-17T05:40:14;18.90;79.80
5520;DHT22;2782;52.362;10.012;2023-05-17T05:41:15;18.90;80.00
5520;DHT22;2782;52.362;10.012;2023-05-17T05:42:16;18.80;79.90
5520;DHT22;2782;52.362;10.012;2023-05-17T05:43:18;18.80;79.30
5520;DHT22;2782;52.362;10.012;2023-05-17T05:44:18;18.80;79.30
5520;DHT22;2782;52.362;10.012;2023-05-17T05:45:20;18.90;79.80
5520;DHT22;2782;52.362;10.012;2023-05-17T05:46:21;18.80;80.40
5520;DHT22;2782;52.362;10.012;2023-05-17T05:47:22;18.80;80.50
5520;DHT22;2782;52.362;10.012;2023-05-17T05:48:23;18.80;82.20
5520;DHT22;2782;52.362;10.012;2023-05-17T05:49:26;18.80;84.40
5520;DHT22;2782;52.362;10.012;2023-05-17T05:50:26;18.80;85.80
5520;DHT22;2782;52.362;10.012;2023-05-17T05:51:28;18.90;86.80
5520;DHT22;2782;52.362;10.012;2023-05-17T05:52:29;18.90;87.40
5520;DHT22;2782;52.362;10.012;2023-05-17T05:53:31;18.90;87.90
5520;DHT22;2782;52.362;10.012;2023-05-17T05:54:31;18.90;87.50
5520;DHT22;2782;52.362;10.012;2023-05-17T05:55:33;18.90;87.00
5520;DHT22;2782;52.362;10.012;2023-05-17T05:56:33;18.90;87.60
5520;DHT22;2782;52.362;10.012;2023-05-17T05:57:35;18.90;87.90
5520;DHT22;2782;52.362;10.012;2023-05-17T05:58:36;18.90;87.90
5520;DHT22;2782;52.362;10.012;2023-05-17T05:59:37;18.90;87.90
5520;DHT22;2782;52.362;10.012;2023-05-17T06:00:38;18.90;87.60
5520;DHT22;2782;52.362;10.012;2023-05-17T06:01:40;19.00;88.10
5520;DHT22;2782;52.362;10.012;2023-05-17T06:02:40;19.00;87.90
5520;DHT22;2782;52.362;10.012;2023-05-17T06:03:42;19.00;87.80
5520;DHT22;2782;52.362;10.012;2023-05-17T06:04:45;19.00;87.60
5520;DHT22;2782;52.362;10.012;2023-05-17T06:05:47;19.00;87.50
5520;DHT22;2782;52.362;10.012;2023-05-17T06:06:47;19.00;87.50
5520;DHT22;2782;52.362;10.012;2023-05-17T06:07:49;19.00;87.50
5520;DHT22;2782;52.362;10.012;2023-05-17T06:08:50;19.00;87.30
5520;DHT22;2782;52.362;10.012;2023-05-17T06:09:51;19.00;87.80
5520;DHT22;2782;52.362;10.012;2023-05-17T06:10:52;19.00;87.10
5520;DHT22;2782;52.362;10.012;2023-05-17T06:11:54;19.00;87.10
5520;DHT22;2782;52.362;10.012;2023-05-17T06:12:55;19.00;87.20
5520;DHT22;2782;52.362;10.012;2023-05-17T06:13:56;19.00;87.20
5520;DHT22;2782;52.362;10.012;2023-05-17T06:14:57;19.00;87.20
5520;DHT22;2782;52.362;10.012;2023-05-17T06:15:58;19.00;87.30
5520;DHT22;2782;52.362;10.012;2023-05-17T06:17:00;19.00;87.40
5520;DHT22;2782;52.362;10.012;2023-05-17T06:18:01;19.10;87.50
5520;DHT22;2782;52.362;10.012;2023-05-17T06:19:02;19.10;87.50
5520;DHT22;2782;52.362;10.012;2023-05-17T06:20:05;19.10;87.50
5520;DHT22;2782;52.362;10.012;2023-05-17T06:21:07;19.10;87.90
5520;DHT22;2782;52.362;10.012;2023-05-17T06:22:08;19.10;88.10
5520;DHT22;2782;52.362;10.012;2023-05-17T06:23:09;19.10;88.10
5520;DHT22;2782;52.362;10.012;2023-05-17T06:24:11;19.10;88.20
5520;DHT22;2782;52.362;10.012;2023-05-17T06:25:11;19.10;88.90
5520;DHT22;2782;52.362;10.012;2023-05-17T06:26:13;19.10;88.40
5520;DHT22;2782;52.362;10.012;2023-05-17T06:27:14;19.10;88.50
5520;DHT22;2782;52.362;10.012;2023-05-17T06:28:16;19.10;88.50
5520;DHT22;2782;52.362;10.012;2023-05-17T06:29:16;19.10;88.60
5520;DHT22;2782;52.362;10.012;2023-05-17T06:30:18;19.10;88.50
5520;DHT22;2782;52.362;10.012;2023-05-17T06:31:19;19.10;88.40
5520;DHT22;2782;52.362;10.012;2023-05-17T06:32:20;19.10;88.40
5520;DHT22;2782;52.362;10.012;2023-05-17T06:33:22;19.10;88.50
5520;DHT22;2782;52.362;10.012;2023-05-17T06:34:22;19.10;88.50
5520;DHT22;2782;52.362;10.012;2023-05-17T06:35:25;19.10;88.60
5520;DHT22;2782;52.362;10.012;2023-05-17T06:36:26;19.10;88.70
5520;DHT22;2782;52.362;10.012;2023-05-17T06:37:27;19.10;88.70
5520;DHT22;2782;52.362;10.012;2023-05-17T06:38:29;19.10;88.80